Time;durP1;ratioP1;P1;durP2;ratioP2;P2;SDS_P1;SDS_P2;PMS_P1;PMS_P2;Temp;Humidity;BMP_temperature;BMP_pressure;BME280_temperature;BME280_humidity;BME280_pressure;Samples;Min_cycle;Max_cycle;Signal;HPM_P1;HPM_P2
2022/08/10 00:00:19;;;;;;;10.03;3.20;;;;;;;;;;5060813;28;20439;-89
2022/08/10 00:02:11;;;;;;;3.50;2.43;;;17.50;83.90;;;;;;5072147;28;20781;-89
2022/08/10 00:04:37;;;;;;;6.23;3.27;;;17.50;85.30;;;;;;5071155;28;20434;-89
2022/08/10 00:07:04;;;;;;;2.87;2.53;;;19.10;87.30;;;;;;5068200;28;20191;-91
2022/08/10 00:09:29;;;;;;;3.23;2.50;;;17.40;87.90;;;;;;5061183;28;20450;-90
2022/08/10 00:11:55;;;;;;;3.83;2.43;;;;;;;;;;5072726;28;20446;-89
2022/08/10 00:14:21;;;;;;;5.77;2.57;;;17.40;88.20;;;;;;5071987;28;20177;-89
2022/08/10 00:16:47;;;;;;;2.87;2.37;;;;;;;;;;5066038;28;20469;-88
2022/08/10 00:19:13;;;;;;;3.00;2.20;;;17.20;90.90;;;;;;5073369;28;20203;-89
2022/08/10 00:21:39;;;;;;;9.87;2.70;;;17.20;91.80;;;;;;5061445;28;20471;-89
2022/08/10 00:24:05;;;;;;;5.67;3.30;;;17.10;93.00;;;;;;5061929;28;21504;-90
2022/08/10 00:26:31;;;;;;;3.83;2.47;;;17.20;93.90;;;;;;5061583;28;20272;-86
2022/08/10 00:28:56;;;;;;;3.87;3.07;;;17.30;94.10;;;;;;5063714;28;20180;-88
2022/08/10 00:31:22;;;;;;;5.23;2.60;;;17.40;93.60;;;;;;5070116;28;20465;-87
2022/08/10 00:33:47;;;;;;;3.10;2.60;;;18.50;94.50;;;;;;5072371;28;20172;-88
2022/08/10 00:36:13;;;;;;;4.27;2.87;;;;;;;;;;5077666;28;20177;-87
2022/08/10 00:38:39;;;;;;;5.37;3.00;;;;;;;;;;5061640;28;20215;-89
2022/08/10 00:41:05;;;;;;;3.27;2.20;;;;;;;;;;5060750;28;20467;-87
2022/08/10 00:43:31;;;;;;;2.90;2.60;;;17.10;94.20;;;;;;5059235;28;21144;-88
2022/08/10 00:45:57;;;;;;;4.97;3.03;;;;;;;;;;5060586;28;20487;-87
2022/08/10 00:48:22;;;;;;;3.00;2.80;;;17.00;94.80;;;;;;5069717;28;20234;-90
2022/08/10 00:50:48;;;;;;;3.20;2.67;;;16.90;95.10;;;;;;5076006;28;20458;-87
2022/08/10 00:53:14;;;;;;;4.40;2.60;;;18.40;97.20;;;;;;5055440;28;20168;-89
2022/08/10 00:55:40;;;;;;;4.50;2.90;;;16.90;96.10;;;;;;5061040;28;20292;-88
2022/08/10 00:58:07;;;;;;;5.70;2.63;;;18.00;96.40;;;;;;5068756;28;20195;-89
2022/08/10 01:00:33;;;;;;;7.10;2.70;;;16.90;96.30;;;;;;5059094;28;20681;-86
2022/08/10 01:02:58;;;;;;;5.47;2.90;;;17.40;96.70;;;;;;5061371;28;20564;-88
2022/08/10 01:05:25;;;;;;;5.47;2.93;;;;;;;;;;5060642;28;20180;-89
2022/08/10 01:08:18;;;;;;;3.80;2.80;;;16.80;97.20;;;;;;5054878;28;20248;-88
2022/08/10 01:10:51;;;;;;;3.90;3.30;;;16.70;98.00;;;;;;5053176;28;21348;-89
2022/08/10 01:13:17;;;;;;;3.70;2.60;;;17.70;98.60;;;;;;5061177;28;20433;-88
2022/08/10 01:15:52;;;;;;;3.17;2.63;;;16.60;98.40;;;;;;5057080;28;20430;-89
2022/08/10 01:18:41;;;;;;;3.40;2.63;;;16.50;98.60;;;;;;5058755;28;20169;-88
2022/08/10 01:21:41;;;;;;;6.27;3.10;;;16.60;98.80;;;;;;5050675;28;20476;-86
2022/08/10 01:24:47;;;;;;;2.90;2.63;;;16.50;99.10;;;;;;5064351;28;20530;-88
2022/08/10 01:27:25;;;;;;;4.50;2.83;;;16.50;99.40;;;;;;5060205;28;20474;-88
2022/08/10 01:30:07;;;;;;;4.03;2.63;;;16.50;99.90;;;;;;5070147;28;20460;-90
2022/08/10 01:33:08;;;;;;;2.90;2.57;;;16.50;99.90;;;;;;5058320;28;21188;-87
2022/08/10 01:35:45;;;;;;;6.23;2.83;;;16.50;99.80;;;;;;5073556;28;20442;-89
2022/08/10 01:38:17;;;;;;;4.27;2.67;;;16.50;99.90;;;;;;5062494;28;20433;-88
2022/08/10 01:40:53;;;;;;;2.60;2.37;;;16.40;99.90;;;;;;5061684;28;20466;-87
2022/08/10 01:43:19;;;;;;;2.50;2.30;;;16.30;99.90;;;;;;5069281;28;20454;-86
2022/08/10 01:45:50;;;;;;;3.33;2.60;;;16.30;99.90;;;;;;5090916;28;20438;-89
2022/08/10 01:48:29;;;;;;;2.73;2.40;;;16.30;99.90;;;;;;5082258;28;20446;-87
2022/08/10 01:51:29;;;;;;;2.77;2.50;;;17.60;99.90;;;;;;5084071;28;20514;-87
2022/08/10 01:54:07;;;;;;;4.00;2.70;;;16.30;99.90;;;;;;5063615;28;20489;-88
2022/08/10 01:56:37;;;;;;;4.45;2.65;;;16.40;99.90;;;;;;5064586;28;20992;-88
2022/08/10 01:59:12;;;;;;;4.13;2.28;;;16.40;99.90;;;;;;5073047;28;20630;-89
2022/08/10 02:01:41;;;;;;;3.40;2.70;;;16.40;99.90;;;;;;5070306;28;20239;-89
2022/08/10 02:04:09;;;;;;;5.77;3.37;;;18.40;99.90;;;;;;5080172;28;20501;-89
2022/08/10 02:06:43;;;;;;;4.20;3.20;;;16.30;99.90;;;;;;5073688;28;20446;-86
2022/08/10 02:09:15;;;;;;;3.87;2.80;;;16.20;99.90;;;;;;5082386;28;20431;-87
2022/08/10 02:11:42;;;;;;;5.17;2.67;;;16.20;99.90;;;;;;5066637;28;20454;-89
2022/08/10 02:14:12;;;;;;;4.43;2.87;;;16.10;99.90;;;;;;5073650;28;20450;-89
2022/08/10 02:16:41;;;;;;;4.60;2.50;;;16.10;99.90;;;;;;5059134;28;20870;-88
2022/08/10 02:19:08;;;;;;;3.20;2.87;;;16.20;99.90;;;;;;5060841;28;20448;-87
2022/08/10 02:21:35;;;;;;;3.27;2.40;;;16.10;99.90;;;;;;5061670;28;20470;-88
2022/08/10 02:24:02;;;;;;;2.85;2.25;;;16.10;99.90;;;;;;5069079;28;20431;-88
2022/08/10 02:26:28;;;;;;;4.97;3.00;;;16.10;99.90;;;;;;5061575;28;20287;-87
2022/08/10 02:28:54;;;;;;;2.90;2.50;;;16.10;99.90;;;;;;5064843;28;20183;-91
2022/08/10 02:31:22;;;;;;;4.07;2.47;;;16.00;99.90;;;;;;5068354;28;20470;-91
2022/08/10 02:33:50;;;;;;;4.17;2.43;;;16.10;99.90;;;;;;5067268;28;21584;-86
2022/08/10 02:36:17;;;;;;;5.00;2.97;;;17.50;99.90;;;;;;5064224;28;20504;-89
2022/08/10 02:38:58;;;;;;;4.87;2.03;;;17.40;99.90;;;;;;5060793;28;20501;-87
2022/08/10 02:41:50;;;;;;;5.72;2.75;;;16.40;99.90;;;;;;5059883;28;20462;-90
2022/08/10 02:44:32;;;;;;;4.00;2.50;;;16.90;99.90;;;;;;5076507;28;20214;-87
2022/08/10 02:47:04;;;;;;;3.42;2.72;;;15.80;99.90;;;;;;5062953;28;20208;-90
2022/08/10 02:49:42;;;;;;;4.10;2.93;;;15.60;99.90;;;;;;5076107;28;20240;-89
2022/08/10 02:52:19;;;;;;;5.18;3.00;;;15.60;99.90;;;;;;5061942;28;20431;-90
2022/08/10 02:54:54;;;;;;;6.30;2.70;;;15.60;99.90;;;;;;5057155;28;20185;-89
2022/08/10 02:57:26;;;;;;;2.78;2.58;;;15.50;99.90;;;;;;5062635;28;20275;-88
2022/08/10 03:00:00;;;;;;;5.05;2.72;;;15.50;99.90;;;;;;5061477;28;20181;-89
2022/08/10 03:02:38;;;;;;;5.20;2.97;;;15.50;99.90;;;;;;5061601;28;20353;-90
2022/08/10 03:05:08;;;;;;;3.50;3.00;;;15.40;99.90;;;;;;5060992;28;20185;-87
2022/08/10 03:07:47;;;;;;;3.00;2.70;;;15.40;99.90;;;;;;5059277;28;20181;-91
2022/08/10 03:10:19;;;;;;;3.72;2.95;;;15.40;99.90;;;;;;5058222;28;20207;-89
2022/08/10 03:12:48;;;;;;;5.20;2.70;;;15.30;99.90;;;;;;5063744;28;20212;-89
2022/08/10 03:15:16;;;;;;;3.05;2.58;;;15.30;99.90;;;;;;5076903;28;20547;-90
2022/08/10 03:17:44;;;;;;;3.35;2.50;;;17.60;99.90;;;;;;5063972;28;20188;-90
2022/08/10 03:20:11;;;;;;;4.60;3.13;;;16.70;99.90;;;;;;5062544;28;20222;-91
2022/08/10 03:22:39;;;;;;;4.38;3.03;;;15.40;99.90;;;;;;5061648;28;20213;-86
2022/08/10 03:25:06;;;;;;;4.57;2.78;;;15.40;99.90;;;;;;5062899;28;20185;-89
2022/08/10 03:27:32;;;;;;;4.53;3.03;;;;;;;;;;5062385;28;20181;-90
2022/08/10 03:29:58;;;;;;;4.00;3.60;;;16.40;99.90;;;;;;5061122;28;20193;-90
2022/08/10 03:32:24;;;;;;;3.97;3.10;;;15.60;99.90;;;;;;5071005;28;20249;-88
2022/08/10 03:34:51;;;;;;;3.10;2.80;;;15.60;99.90;;;;;;5062306;28;20188;-90
2022/08/10 03:37:17;;;;;;;3.28;2.63;;;15.50;99.90;;;;;;5080500;28;20651;-90
2022/08/10 03:39:42;;;;;;;3.10;2.70;;;15.40;99.90;;;;;;5082408;28;20156;-90
2022/08/10 03:42:11;;;;;;;6.07;3.17;;;14.90;99.90;;;;;;5068522;28;20297;-90
2022/08/10 03:44:39;;;;;;;4.75;3.17;;;17.40;99.90;;;;;;5060960;28;21003;-90
2022/08/10 03:47:07;;;;;;;4.50;2.88;;;15.20;99.90;;;;;;5079770;28;20184;-89
2022/08/10 03:49:37;;;;;;;4.40;3.22;;;15.00;99.90;;;;;;5078902;28;20188;-88
2022/08/10 03:52:05;;;;;;;3.78;2.90;;;15.00;99.90;;;;;;5061347;28;20180;-92
2022/08/10 03:54:32;;;;;;;2.90;2.70;;;14.90;99.90;;;;;;5074783;28;20223;-88
2022/08/10 03:56:58;;;;;;;3.53;2.97;;;14.90;99.90;;;;;;5059493;28;20173;-86
2022/08/10 03:59:23;;;;;;;4.50;3.17;;;16.50;99.90;;;;;;5051846;28;20187;-88
2022/08/10 04:01:51;;;;;;;3.73;2.83;;;14.90;99.90;;;;;;5047391;28;20467;-87
2022/08/10 04:04:18;;;;;;;3.33;2.50;;;14.90;99.90;;;;;;5047517;28;20177;-88
2022/08/10 04:06:44;;;;;;;3.25;2.80;;;15.00;99.90;;;;;;5051360;28;20963;-87
2022/08/10 04:09:10;;;;;;;5.13;2.95;;;14.90;99.90;;;;;;5047999;28;20207;-88
2022/08/10 04:11:35;;;;;;;6.30;2.67;;;15.00;99.90;;;;;;5051678;28;20216;-89
2022/08/10 04:14:02;;;;;;;9.37;3.33;;;15.00;99.90;;;;;;5052549;28;20188;-87
2022/08/10 04:16:28;;;;;;;4.78;2.50;;;;;;;;;;5046168;28;20218;-89
2022/08/10 04:18:53;;;;;;;4.47;3.30;;;15.00;99.90;;;;;;5058728;28;20213;-88
2022/08/10 04:21:29;;;;;;;3.57;3.27;;;15.00;99.90;;;;;;5068535;28;20500;-87
2022/08/10 04:23:56;;;;;;;4.78;3.55;;;15.00;99.90;;;;;;5052401;28;20184;-85
2022/08/10 04:26:22;;;;;;;3.47;3.13;;;;;;;;;;5051135;28;20279;-85
2022/08/10 04:28:48;;;;;;;3.13;2.83;;;15.30;99.90;;;;;;5051128;28;20238;-87
2022/08/10 04:31:18;;;;;;;5.60;3.20;;;15.40;99.90;;;;;;5060352;28;20272;-86
2022/08/10 04:33:49;;;;;;;8.10;3.45;;;15.90;99.90;;;;;;5093326;28;20183;-85
2022/08/10 04:36:17;;;;;;;5.73;3.40;;;16.80;99.90;;;;;;5084317;28;20188;-86
2022/08/10 04:38:43;;;;;;;3.03;2.73;;;17.80;99.90;;;;;;5052016;28;20434;-88
2022/08/10 04:41:10;;;;;;;2.80;2.60;;;18.40;99.90;;;;;;5060856;28;20881;-88
2022/08/10 04:43:36;;;;;;;3.37;3.07;;;19.30;99.90;;;;;;5055583;28;20446;-86
2022/08/10 04:46:02;;;;;;;4.87;2.93;;;20.20;99.90;;;;;;5068652;28;20451;-86
2022/08/10 04:48:27;;;;;;;4.93;2.70;;;20.60;95.80;;;;;;5050024;28;20815;-87
2022/08/10 04:50:53;;;;;;;3.23;2.90;;;21.60;96.60;;;;;;5051168;28;20230;-88
2022/08/10 04:53:18;;;;;;;3.67;3.10;;;22.60;92.40;;;;;;5048281;28;20501;-85
2022/08/10 04:55:44;;;;;;;2.97;2.77;;;23.60;88.90;;;;;;5050424;28;20192;-85
2022/08/10 04:58:10;;;;;;;4.10;3.00;;;24.40;80.40;;;;;;5050462;28;20250;-87
2022/08/10 05:00:35;;;;;;;8.90;3.00;;;25.20;77.40;;;;;;5053018;28;20242;-88
2022/08/10 05:03:01;;;;;;;3.07;2.70;;;26.60;72.30;;;;;;5054025;28;20265;-88
2022/08/10 05:05:27;;;;;;;4.30;3.23;;;28.00;68.10;;;;;;5053423;28;20622;-88
2022/08/10 05:07:52;;;;;;;6.10;3.73;;;28.60;58.90;;;;;;5052078;28;20184;-89
2022/08/10 05:10:18;;;;;;;6.40;4.30;;;29.20;57.70;;;;;;5055437;28;20205;-88
2022/08/10 05:12:43;;;;;;;3.60;2.80;;;29.50;52.90;;;;;;5078138;28;20193;-85
2022/08/10 05:15:11;;;;;;;6.20;3.60;;;29.90;54.10;;;;;;5079079;28;20180;-88
2022/08/10 05:17:38;;;;;;;3.40;3.10;;;30.70;53.30;;;;;;5055177;28;20199;-88
2022/08/10 05:20:05;;;;;;;4.10;3.70;;;32.00;50.40;;;;;;5066564;28;20497;-87
2022/08/10 05:22:32;;;;;;;4.93;3.13;;;33.40;48.10;;;;;;5068739;28;20520;-86
2022/08/10 05:24:58;;;;;;;4.27;3.10;;;34.70;45.80;;;;;;5058134;28;20439;-92
2022/08/10 05:27:23;;;;;;;6.30;4.33;;;35.30;43.40;;;;;;5055591;28;20977;-88
2022/08/10 05:29:49;;;;;;;4.17;3.87;;;36.30;39.40;;;;;;5058011;28;20768;-88
2022/08/10 05:32:15;;;;;;;12.90;5.17;;;37.60;40.70;;;;;;5055984;28;20177;-87
2022/08/10 05:34:40;;;;;;;6.67;4.53;;;37.30;38.30;;;;;;5046315;28;20187;-89
2022/08/10 05:37:06;;;;;;;4.97;4.47;;;37.50;36.10;;;;;;5053605;28;21237;-90
2022/08/10 05:39:33;;;;;;;7.20;4.93;;;37.60;35.10;;;;;;5052129;28;20195;-89
2022/08/10 05:42:00;;;;;;;5.03;4.53;;;36.40;35.00;;;;;;5064239;28;20466;-89
2022/08/10 05:44:26;;;;;;;5.90;4.37;;;36.30;34.90;;;;;;5053444;28;20858;-90
2022/08/10 05:46:52;;;;;;;6.43;4.80;;;;;;;;;;5051001;28;20432;-89
2022/08/10 05:49:18;;;;;;;7.80;5.00;;;36.90;35.10;;;;;;5050390;28;20936;-89
2022/08/10 05:51:43;;;;;;;6.23;5.80;;;38.60;34.20;;;;;;5052926;28;20465;-88
2022/08/10 05:54:16;;;;;;;6.10;5.70;;;38.00;33.50;;;;;;5042176;28;20239;-86
2022/08/10 05:56:43;;;;;;;12.27;6.77;;;39.00;32.80;;;;;;5046996;28;20190;-90
2022/08/10 05:59:11;;;;;;;7.37;6.87;;;39.70;30.50;;;;;;5050999;28;20440;-89
2022/08/10 06:01:41;;;;;;;6.83;6.33;;;39.20;30.50;;;;;;5058054;28;20498;-86
2022/08/10 06:04:17;;;;;;;7.33;6.73;;;40.10;30.20;;;;;;5067039;28;20503;-88
2022/08/10 06:06:46;;;;;;;8.10;7.50;;;41.30;29.30;;;;;;5051018;28;20436;-88
2022/08/10 06:09:15;;;;;;;7.63;7.07;;;41.20;29.70;;;;;;5048857;28;20449;-89
2022/08/10 06:11:42;;;;;;;7.60;7.00;;;41.90;28.30;;;;;;5053398;28;20492;-91
2022/08/10 06:16:54;;;;;;;9.37;8.77;;;;;;;;;;5071460;28;20473;-87
2022/08/10 06:19:20;;;;;;;8.17;7.67;;;41.70;27.70;;;;;;5053184;28;20436;-88
2022/08/10 06:21:47;;;;;;;9.67;9.17;;;42.30;28.20;;;;;;5052116;28;20957;-91
2022/08/10 06:24:16;;;;;;;9.80;9.20;;;43.50;26.50;;;;;;5062197;28;20437;-89
2022/08/10 06:26:45;;;;;;;9.43;8.93;;;43.50;26.90;;;;;;5059413;28;20437;-86
2022/08/10 06:29:13;;;;;;;11.80;10.20;;;44.20;25.70;;;;;;5059892;28;20445;-87
2022/08/10 06:31:43;;;;;;;10.53;9.70;;;44.20;26.10;;;;;;5059127;28;20471;-87
2022/08/10 06:34:10;;;;;;;9.80;9.20;;;43.80;26.10;;;;;;5053056;28;21148;-87
2022/08/10 06:36:38;;;;;;;10.93;10.10;;;43.60;26.00;;;;;;5055307;28;20831;-88
2022/08/10 06:39:04;;;;;;;10.47;9.27;;;;;;;;;;5055476;28;20451;-88
2022/08/10 06:41:34;;;;;;;10.87;9.83;;;45.20;25.50;;;;;;5068775;28;20521;-90
2022/08/10 06:44:05;;;;;;;10.90;10.30;;;45.90;24.90;;;;;;5087216;28;20439;-87
2022/08/10 06:46:36;;;;;;;11.70;11.10;;;46.00;24.40;;;;;;5073680;28;20443;-88
2022/08/10 06:49:04;;;;;;;11.90;11.10;;;45.40;23.80;;;;;;5074551;28;20435;-89
2022/08/10 06:51:33;;;;;;;16.13;12.10;;;44.90;24.40;;;;;;5070443;28;20864;-89
2022/08/10 06:54:26;;;;;;;12.27;11.30;;;45.40;24.40;;;;;;5054836;28;20471;-83
2022/08/10 06:56:54;;;;;;;12.73;11.70;;;46.80;24.00;;;;;;5057770;28;20442;-87
2022/08/10 06:59:40;;;;;;;14.80;13.80;;;46.80;23.30;;;;;;5079297;28;20430;-87
2022/08/10 07:02:08;;;;;;;13.47;12.37;;;44.50;24.00;;;;;;5058858;28;20491;-86
2022/08/10 07:04:42;;;;;;;12.33;11.73;;;43.20;24.20;;;;;;5058536;28;20428;-88
2022/08/10 07:07:09;;;;;;;11.83;10.80;;;44.60;24.80;;;;;;5067555;28;20574;-87
2022/08/10 07:09:38;;;;;;;12.27;11.70;;;45.00;24.50;;;;;;5051690;28;20489;-86
2022/08/10 07:12:06;;;;;;;12.77;11.90;;;44.90;24.80;;;;;;5063664;28;20542;-88
2022/08/10 07:14:33;;;;;;;13.07;12.40;;;;;;;;;;5064711;28;20823;-89
2022/08/10 07:17:00;;;;;;;14.57;13.10;;;47.70;23.20;;;;;;5078314;28;20478;-87
2022/08/10 07:19:28;;;;;;;14.70;14.00;;;47.80;22.30;;;;;;5095223;28;20451;-87
2022/08/10 07:21:54;;;;;;;15.13;13.97;;;;;;;;;;5089300;28;20482;-87
2022/08/10 07:24:20;;;;;;;16.50;15.80;;;;;;;;;;5055366;28;21070;-89
2022/08/10 07:26:49;;;;;;;13.33;12.57;;;45.10;23.70;;;;;;5076344;28;20427;-88
2022/08/10 07:29:17;;;;;;;12.87;12.17;;;46.10;23.40;;;;;;5073508;28;20539;-89
2022/08/10 07:31:43;;;;;;;13.47;12.67;;;46.10;23.80;;;;;;5074181;28;20463;-88
2022/08/10 07:34:13;;;;;;;13.80;12.90;;;45.90;24.20;;;;;;5060716;28;20482;-87
2022/08/10 07:36:41;;;;;;;14.90;14.10;;;45.70;23.90;;;;;;5055443;28;20434;-88
2022/08/10 07:39:08;;;;;;;15.70;14.67;;;46.80;23.00;;;;;;5071361;28;20481;-90
2022/08/10 07:41:38;;;;;;;16.30;15.60;;;47.10;23.60;;;;;;5056702;28;21462;-87
2022/08/10 07:44:04;;;;;;;17.40;16.60;;;;;;;;;;5052226;28;20433;-87
2022/08/10 07:46:34;;;;;;;16.60;15.90;;;46.40;22.90;;;;;;5085640;28;20442;-87
2022/08/10 07:49:04;;;;;;;16.33;15.40;;;44.40;23.20;;;;;;5061552;28;20522;-88
2022/08/10 07:51:32;;;;;;;15.30;14.20;;;44.40;23.60;;;;;;5046729;28;20461;-88
2022/08/10 07:54:00;;;;;;;15.17;14.07;;;43.90;24.20;;;;;;5051775;28;21291;-90
2022/08/10 07:56:29;;;;;;;13.13;12.53;;;44.50;24.90;;;;;;5071626;28;20461;-87
2022/08/10 07:59:03;;;;;;;13.83;12.90;;;42.50;24.90;;;;;;5058815;28;20434;-86
2022/08/10 08:01:32;;;;;;;16.17;15.30;;;42.90;25.30;;;;;;5073264;28;20591;-88
2022/08/10 08:03:59;;;;;;;13.13;12.53;;;43.80;25.00;;;;;;5056257;28;20626;-91
2022/08/10 08:06:26;;;;;;;13.70;13.00;;;43.80;25.50;;;;;;5073729;28;21357;-91
2022/08/10 08:08:52;;;;;;;13.43;12.70;;;44.30;24.40;;;;;;5056637;28;20483;-90
2022/08/10 08:11:19;;;;;;;12.40;11.70;;;43.90;25.10;;;;;;5078961;28;20485;-88
2022/08/10 08:13:46;;;;;;;16.13;15.23;;;44.10;24.30;;;;;;5072188;28;20443;-86
2022/08/10 08:16:13;;;;;;;13.90;13.07;;;44.00;24.70;;;;;;5079862;28;20439;-87
2022/08/10 08:18:39;;;;;;;14.17;13.03;;;41.80;24.70;;;;;;5066361;28;20899;-88
2022/08/10 08:21:05;;;;;;;13.47;12.63;;;41.70;24.00;;;;;;5074942;28;20467;-90
2022/08/10 08:23:32;;;;;;;12.50;11.80;;;;;;;;;;5059932;28;20504;-89
2022/08/10 08:25:59;;;;;;;10.30;9.80;;;38.20;26.40;;;;;;5072152;28;20431;-90
2022/08/10 08:28:26;;;;;;;9.33;8.73;;;40.20;27.80;;;;;;5071439;28;20446;-88
2022/08/10 08:30:53;;;;;;;9.30;8.90;;;35.90;28.20;;;;;;5059616;28;20467;-90
2022/08/10 08:33:19;;;;;;;9.53;8.93;;;35.80;28.60;;;;;;5059422;28;20445;-87
2022/08/10 08:35:45;;;;;;;8.60;7.87;;;;;;;;;;5055783;28;20734;-89
2022/08/10 08:38:12;;;;;;;8.70;8.20;;;35.80;28.30;;;;;;5058885;28;21132;-90
2022/08/10 08:40:43;;;;;;;8.20;7.70;;;34.90;29.30;;;;;;5078178;28;20473;-89
2022/08/10 08:43:41;;;;;;;8.53;7.93;;;37.10;30.80;;;;;;5069863;28;20459;-88
2022/08/10 08:46:33;;;;;;;7.90;7.43;;;35.20;29.80;;;;;;5057940;28;20436;-89
2022/08/10 08:49:35;;;;;;;8.80;8.20;;;35.50;29.60;;;;;;5063302;28;20971;-85
2022/08/10 08:52:12;;;;;;;8.40;7.87;;;36.20;29.10;;;;;;5039298;28;20938;-87
2022/08/10 08:54:58;;;;;;;8.43;7.93;;;37.30;28.40;;;;;;5065282;28;20446;-88
2022/08/10 08:57:27;;;;;;;8.53;8.00;;;37.20;27.90;;;;;;5056255;28;21129;-90
2022/08/10 09:00:03;;;;;;;8.50;8.00;;;36.40;27.20;;;;;;5067995;28;20439;-88
2022/08/10 09:02:54;;;;;;;9.70;8.80;;;36.40;27.90;;;;;;5053119;28;21237;-89
2022/08/10 09:05:45;;;;;;;8.23;7.73;;;36.50;28.30;;;;;;5035265;28;20450;-90
2022/08/10 09:08:35;;;;;;;8.17;7.60;;;36.30;27.50;;;;;;5056804;28;20448;-88
2022/08/10 09:11:19;;;;;;;8.73;7.47;;;35.30;28.40;;;;;;5053860;28;20557;-88
2022/08/10 09:14:15;;;;;;;8.30;7.90;;;35.70;28.50;;;;;;5052080;28;20441;-88
2022/08/10 09:16:50;;;;;;;8.27;7.67;;;35.20;27.50;;;;;;5056757;28;20530;-89
2022/08/10 09:19:36;;;;;;;9.43;8.80;;;34.60;27.60;;;;;;5049840;28;20460;-90
2022/08/10 09:22:19;;;;;;;8.10;7.60;;;34.40;28.00;;;;;;5051724;28;20455;-91
2022/08/10 09:25:22;;;;;;;8.73;8.03;;;34.50;28.10;;;;;;5053624;28;20441;-88
2022/08/10 09:28:05;;;;;;;8.43;8.00;;;33.50;28.20;;;;;;5054450;28;20437;-87
2022/08/10 09:30:39;;;;;;;8.07;7.47;;;33.40;28.40;;;;;;5057113;28;20458;-89
2022/08/10 09:33:18;;;;;;;8.17;7.50;;;33.50;29.10;;;;;;5055967;28;20460;-88
2022/08/10 09:36:06;;;;;;;8.00;7.60;;;34.10;28.50;;;;;;5051718;28;20430;-89
2022/08/10 09:38:41;;;;;;;8.43;7.93;;;35.30;28.00;;;;;;5062581;28;20445;-87
2022/08/10 09:41:31;;;;;;;10.93;7.90;;;35.40;28.40;;;;;;5077831;28;20646;-88
2022/08/10 09:44:24;;;;;;;8.07;7.67;;;35.60;26.50;;;;;;5075233;28;20438;-88
2022/08/10 09:46:58;;;;;;;8.30;7.80;;;33.60;26.00;;;;;;5079266;28;20434;-88
2022/08/10 09:49:45;;;;;;;7.20;6.67;;;34.20;26.90;;;;;;5068154;28;20452;-87
2022/08/10 09:52:20;;;;;;;7.60;7.17;;;33.50;27.30;;;;;;5064785;28;20786;-89
2022/08/10 09:55:05;;;;;;;7.67;7.00;;;33.50;28.10;;;;;;5062356;28;20450;-87
2022/08/10 09:57:46;;;;;;;7.80;7.40;;;34.10;27.90;;;;;;5062331;28;20527;-88
2022/08/10 10:00:16;;;;;;;7.27;6.90;;;33.70;27.90;;;;;;5070880;28;20457;-89
2022/08/10 10:03:22;;;;;;;7.50;6.90;;;33.50;27.80;;;;;;5074629;28;20508;-88
2022/08/10 10:06:20;;;;;;;8.47;7.93;;;32.80;27.70;;;;;;5082188;28;20454;-90
2022/08/10 10:09:02;;;;;;;8.40;7.80;;;32.70;28.10;;;;;;5076808;28;20449;-86
2022/08/10 10:11:41;;;;;;;9.10;8.40;;;32.80;28.00;;;;;;5062113;28;20517;-91
2022/08/10 10:15:18;;;;;;;7.93;7.23;;;33.20;27.80;;;;;;5060773;28;20485;-88
2022/08/10 10:17:30;;;;;;;7.50;6.93;;;32.80;27.10;;;;;;5060393;28;20956;-88
2022/08/10 10:20:09;;;;;;;6.73;6.20;;;33.00;27.10;;;;;;5073289;28;20436;-90
2022/08/10 10:22:44;;;;;;;7.93;7.43;;;33.70;27.60;;;;;;5068190;28;20467;-92
2022/08/10 10:25:34;;;;;;;7.37;7.00;;;32.40;27.40;;;;;;5062512;28;20593;-89
2022/08/10 10:28:37;;;;;;;7.63;6.70;;;32.00;27.70;;;;;;5067854;28;20430;-89
2022/08/10 10:31:12;;;;;;;6.90;6.50;;;31.20;28.20;;;;;;5066609;28;20837;-90
2022/08/10 10:34:03;;;;;;;5.37;4.97;;;33.00;29.50;;;;;;5072818;28;20438;-88
2022/08/10 10:36:30;;;;;;;10.20;4.60;;;30.60;29.10;;;;;;5059371;28;20565;-88
2022/08/10 10:38:58;;;;;;;3.90;3.60;;;31.30;30.20;;;;;;5062265;28;20428;-87
2022/08/10 10:41:44;;;;;;;4.43;3.60;;;29.80;30.10;;;;;;5069598;28;20493;-88
2022/08/10 10:44:21;;;;;;;5.07;4.60;;;29.50;30.80;;;;;;5084496;28;20494;-90
2022/08/10 10:47:00;;;;;;;6.83;3.73;;;29.20;30.90;;;;;;5059859;28;20434;-88
2022/08/10 10:49:48;;;;;;;4.80;4.07;;;29.20;31.40;;;;;;5080318;28;20442;-88
2022/08/10 10:52:37;;;;;;;7.43;4.07;;;28.90;32.00;;;;;;5060952;28;20446;-90
2022/08/10 10:55:29;;;;;;;3.80;3.37;;;28.80;32.40;;;;;;5068683;28;20419;-89
2022/08/10 10:58:14;;;;;;;4.30;4.00;;;28.70;31.80;;;;;;5057096;28;20439;-86
2022/08/10 11:01:02;;;;;;;4.90;4.60;;;29.00;31.90;;;;;;5059091;28;21021;-88
2022/08/10 11:03:49;;;;;;;4.47;3.77;;;29.10;30.80;;;;;;5062864;28;20529;-87
2022/08/10 11:06:53;;;;;;;5.63;3.93;;;28.80;30.90;;;;;;5061015;28;21499;-88
2022/08/10 11:09:30;;;;;;;5.20;4.80;;;28.80;31.40;;;;;;5059941;28;20423;-86
2022/08/10 11:12:01;;;;;;;3.73;3.53;;;29.00;30.50;;;;;;5062711;28;21025;-87
2022/08/10 11:14:38;;;;;;;5.83;5.27;;;29.10;30.70;;;;;;5069430;28;20439;-87
2022/08/10 11:17:17;;;;;;;4.37;4.07;;;29.20;30.40;;;;;;5072129;28;20508;-87
2022/08/10 11:20:02;;;;;;;4.70;4.30;;;29.20;30.10;;;;;;5083528;28;20522;-87
2022/08/10 11:22:34;;;;;;;4.93;4.63;;;29.20;30.70;;;;;;5064516;28;20517;-86
2022/08/10 11:25:00;;;;;;;4.40;4.10;;;;;;;;;;5066052;28;20434;-86
2022/08/10 11:27:43;;;;;;;4.70;4.30;;;29.40;30.00;;;;;;5062141;28;20424;-88
2022/08/10 11:30:46;;;;;;;4.50;4.20;;;29.30;30.40;;;;;;5055445;28;21216;-88
2022/08/10 11:33:24;;;;;;;5.83;4.50;;;29.30;30.70;;;;;;5020337;28;20491;-89
2022/08/10 11:35:58;;;;;;;4.60;4.20;;;29.40;31.00;;;;;;5064183;28;20438;-90
2022/08/10 11:38:31;;;;;;;7.00;4.27;;;29.70;31.30;;;;;;5057746;28;21500;-88
2022/08/10 11:41:20;;;;;;;4.10;3.80;;;29.50;30.50;;;;;;5056111;28;20589;-88
2022/08/10 11:43:55;;;;;;;4.53;4.13;;;29.50;30.70;;;;;;5065226;28;20440;-87
2022/08/10 11:46:32;;;;;;;5.87;5.33;;;29.50;30.90;;;;;;5054515;28;20445;-87
2022/08/10 11:49:08;;;;;;;4.47;4.17;;;29.50;31.10;;;;;;5072446;28;20557;-90
2022/08/10 11:51:47;;;;;;;5.03;4.60;;;29.40;31.10;;;;;;5058575;28;20494;-86
2022/08/10 11:54:41;;;;;;;5.43;4.00;;;29.50;30.90;;;;;;5058612;28;20745;-88
2022/08/10 11:57:08;;;;;;;5.40;4.00;;;29.60;30.50;;;;;;5053955;28;20481;-90
2022/08/10 12:02:22;;;;;;;4.20;3.90;;;29.80;30.60;;;;;;5061508;28;20543;-88
2022/08/10 12:05:18;;;;;;;3.87;3.50;;;29.60;31.20;;;;;;5068582;28;20503;-88
2022/08/10 12:07:50;;;;;;;4.97;4.57;;;29.70;30.80;;;;;;5053166;28;20435;-87
2022/08/10 12:10:19;;;;;;;4.87;4.47;;;29.80;30.40;;;;;;5074095;28;20517;-88
2022/08/10 12:12:57;;;;;;;8.00;4.20;;;29.80;30.50;;;;;;5078006;28;20461;-88
2022/08/10 12:15:39;;;;;;;4.80;4.50;;;31.50;31.80;;;;;;5073226;28;20451;-90
2022/08/10 12:18:15;;;;;;;4.37;3.97;;;30.10;30.30;;;;;;5051432;28;20439;-89
2022/08/10 12:20:44;;;;;;;4.70;4.40;;;29.90;30.00;;;;;;5067898;28;20461;-89
2022/08/10 12:23:16;;;;;;;4.97;3.77;;;29.80;30.60;;;;;;5050268;28;20466;-88
2022/08/10 12:25:56;;;;;;;4.90;4.50;;;30.00;30.70;;;;;;5050285;28;20868;-90
2022/08/10 12:28:47;;;;;;;4.93;4.43;;;30.40;30.20;;;;;;5051977;28;20478;-90
2022/08/10 12:31:15;;;;;;;4.93;4.47;;;30.40;30.00;;;;;;5053791;28;20458;-91
2022/08/10 12:33:59;;;;;;;5.40;3.80;;;30.50;30.00;;;;;;5061049;28;20449;-91
2022/08/10 12:36:36;;;;;;;5.10;4.60;;;30.30;29.80;;;;;;5050602;28;20461;-86
2022/08/10 12:39:25;;;;;;;5.47;4.60;;;30.30;30.00;;;;;;5057912;28;20427;-91
2022/08/10 12:42:14;;;;;;;5.07;4.70;;;30.20;29.90;;;;;;5084862;28;20738;-89
2022/08/10 12:44:52;;;;;;;6.30;5.10;;;30.20;30.30;;;;;;5069531;28;20437;-88
2022/08/10 12:48:01;;;;;;;4.57;4.23;;;30.30;30.20;;;;;;5070650;28;20460;-90
2022/08/10 12:50:45;;;;;;;4.80;4.40;;;30.20;30.00;;;;;;5045547;28;20851;-90
2022/08/10 12:53:25;;;;;;;5.33;4.60;;;30.00;30.00;;;;;;5057861;28;20601;-89
2022/08/10 12:55:52;;;;;;;4.60;4.30;;;29.80;30.00;;;;;;5065264;28;20432;-88
2022/08/10 12:58:19;;;;;;;5.27;4.80;;;29.90;30.00;;;;;;5054090;28;20441;-88
2022/08/10 13:00:48;;;;;;;4.53;4.13;;;30.10;30.30;;;;;;5056230;28;20473;-91
2022/08/10 13:03:15;;;;;;;4.30;4.07;;;30.10;29.90;;;;;;5055050;28;20987;-89
2022/08/10 13:05:42;;;;;;;6.80;4.40;;;30.20;29.90;;;;;;5051058;28;20464;-90
2022/08/10 13:10:59;;;;;;;4.17;3.87;;;30.50;29.50;;;;;;5051838;28;20566;-91
2022/08/10 13:13:32;;;;;;;4.83;4.50;;;30.80;29.90;;;;;;5058768;28;20420;-89
2022/08/10 13:15:59;;;;;;;4.80;4.30;;;30.80;29.50;;;;;;5066127;28;20435;-89
2022/08/10 13:18:30;;;;;;;5.30;4.80;;;30.70;29.40;;;;;;5062633;28;20452;-88
2022/08/10 13:21:01;;;;;;;4.70;4.40;;;30.70;29.40;;;;;;5065277;28;20457;-92
2022/08/10 13:23:29;;;;;;;5.30;5.00;;;30.40;29.80;;;;;;5066562;28;20446;-87
2022/08/10 13:25:57;;;;;;;4.00;3.70;;;30.60;30.10;;;;;;5071054;28;20459;-89
2022/08/10 13:28:36;;;;;;;4.90;4.50;;;30.20;29.80;;;;;;5065030;28;20439;-90